Hauptseite
METAR-TAF:

METAR-TAF

Flughäfen :

Rarotonga, Cookinseln

Flughafen Rarotonga

Breite: 21-12S, Länge: 159-49W, Höhe: 7 m

Beobachtung

Neuester Wetterbericht von vor 10 Minuten, um 12:00 UTC
Wind 10 kt aus Ost
Temperatur 23°C
Luftfeuchtigkeit 73%
Luftdruck 1017 hPa
Sichtweite 10 km oder mehr
Leicht bewölkt in der Höhe von 2000 ft

METAR: NCRG 211200Z 10010KT 9999 FEW020 23/18 Q1017

Zeit: 02:10 (12:10 UTC)

Prognose

Neuester Wetterbericht von vor 38 Minuten, um 11:32 UTC
Gültige Prognose vom 21 um 12 UTC bis 22 um 12 UTC
Wind 13 kt aus Ost
Sichtweite 10 km oder mehr
Aufgelockert bewölkt in der Höhe von 1700 ft
Aufgelockert bewölkt in der Höhe von 4000 ft

TAF: NCRG 211132Z 2112/2212 09013KT 9999 SCT017 SCT040

Wetterbeobachtungen und Prognosen von mehr als 4000 Flughäfen (METAR und TAF Bericht).

Die verfügbaren Stationen werden durch gelbe und rote Markierungen auf der Karte dargestellt.

Führen Sie die Maus auf sie, um den Namen der Station zu sehen.

Darauf klicken, um die Beobachtung von Wetterbeobachtungen und Prognosen zu sehen.

Um die Karte zu ändern : klicken Sie auf den grünen Tasten mit einem schwarzen Kreuz Zum Vergrößern, auf den grünen Button mit einem Gedankenstrich zu verkleinern, oder auf die grünen Pfeile für benachbarte Karten.


METAR-TAF: